sensor_id;sensor_type;location;lat;lon;timestamp;pressure;altitude;pressure_sealevel;temperature;humidity
3082;BME280;1551;51.046;7.010;2023-11-21T00:00:29;100315.06;;;11.02;nan
3082;BME280;1551;51.046;7.010;2023-11-21T00:03:18;100320.19;;;11.03;nan
3082;BME280;1551;51.046;7.010;2023-11-21T00:06:08;100317.63;;;11.03;nan
3082;BME280;1551;51.046;7.010;2023-11-21T00:09:00;100328.81;;;10.98;nan
3082;BME280;1551;51.046;7.010;2023-11-21T00:11:49;100324.59;;;10.95;nan
3082;BME280;1551;51.046;7.010;2023-11-21T00:14:38;100319.47;;;10.95;nan
3082;BME280;1551;51.046;7.010;2023-11-21T00:17:27;100322.19;;;10.86;nan
3082;BME280;1551;51.046;7.010;2023-11-21T00:20:16;100322.25;;;10.82;nan
3082;BME280;1551;51.046;7.010;2023-11-21T00:23:05;100321.50;;;10.77;nan
3082;BME280;1551;51.046;7.010;2023-11-21T00:25:54;100323.34;;;10.69;nan
3082;BME280;1551;51.046;7.010;2023-11-21T00:28:43;100327.88;;;10.52;nan
3082;BME280;1551;51.046;7.010;2023-11-21T00:31:32;100330.53;;;10.47;nan
3082;BME280;1551;51.046;7.010;2023-11-21T00:34:21;100332.41;;;10.34;nan
3082;BME280;1551;51.046;7.010;2023-11-21T00:37:10;100338.66;;;10.17;nan
3082;BME280;1551;51.046;7.010;2023-11-21T00:39:58;100347.25;;;10.08;nan
3082;BME280;1551;51.046;7.010;2023-11-21T00:42:48;100342.31;;;9.95;nan
3082;BME280;1551;51.046;7.010;2023-11-21T00:45:36;100345.75;;;9.92;nan
3082;BME280;1551;51.046;7.010;2023-11-21T00:48:25;100345.06;;;9.81;nan
3082;BME280;1551;51.046;7.010;2023-11-21T00:51:14;100344.38;;;9.67;nan
3082;BME280;1551;51.046;7.010;2023-11-21T00:54:03;100342.78;;;9.58;nan
3082;BME280;1551;51.046;7.010;2023-11-21T00:56:53;100340.09;;;9.69;nan
3082;BME280;1551;51.046;7.010;2023-11-21T00:59:42;100346.97;;;9.65;nan
3082;BME280;1551;51.046;7.010;2023-11-21T01:02:30;100352.88;;;9.69;nan
3082;BME280;1551;51.046;7.010;2023-11-21T01:05:19;100358.84;;;9.66;nan
3082;BME280;1551;51.046;7.010;2023-11-21T01:08:08;100361.53;;;9.56;nan
3082;BME280;1551;51.046;7.010;2023-11-21T01:10:57;100360.63;;;9.60;nan
3082;BME280;1551;51.046;7.010;2023-11-21T01:13:46;100360.47;;;9.74;nan
3082;BME280;1551;51.046;7.010;2023-11-21T01:16:35;100364.56;;;9.88;nan
3082;BME280;1551;51.046;7.010;2023-11-21T01:19:26;100368.75;;;9.94;nan
3082;BME280;1551;51.046;7.010;2023-11-21T01:22:17;100370.38;;;10.01;nan
3082;BME280;1551;51.046;7.010;2023-11-21T01:25:11;100372.81;;;10.11;nan
3082;BME280;1551;51.046;7.010;2023-11-21T01:28:00;100372.81;;;10.10;nan
3082;BME280;1551;51.046;7.010;2023-11-21T01:30:49;100368.63;;;10.03;nan
3082;BME280;1551;51.046;7.010;2023-11-21T01:33:38;100381.41;;;10.01;nan
3082;BME280;1551;51.046;7.010;2023-11-21T01:36:31;100367.69;;;10.08;nan
3082;BME280;1551;51.046;7.010;2023-11-21T01:39:21;100382.16;;;10.14;nan
3082;BME280;1551;51.046;7.010;2023-11-21T01:42:12;100384.75;;;10.12;nan
3082;BME280;1551;51.046;7.010;2023-11-21T01:45:03;100391.41;;;10.22;nan
3082;BME280;1551;51.046;7.010;2023-11-21T01:47:53;100392.31;;;10.18;nan
3082;BME280;1551;51.046;7.010;2023-11-21T01:50:43;100383.09;;;10.05;nan
3082;BME280;1551;51.046;7.010;2023-11-21T01:53:32;100385.66;;;10.05;nan
3082;BME280;1551;51.046;7.010;2023-11-21T01:56:21;100393.22;;;10.14;nan
3082;BME280;1551;51.046;7.010;2023-11-21T01:59:12;100389.72;;;10.20;nan
3082;BME280;1551;51.046;7.010;2023-11-21T02:02:06;100389.63;;;10.27;nan
3082;BME280;1551;51.046;7.010;2023-11-21T02:04:56;100393.88;;;10.31;nan
3082;BME280;1551;51.046;7.010;2023-11-21T02:07:46;100392.91;;;10.37;nan
3082;BME280;1551;51.046;7.010;2023-11-21T02:10:38;100398.94;;;10.33;nan
3082;BME280;1551;51.046;7.010;2023-11-21T02:13:27;100399.75;;;10.35;nan
3082;BME280;1551;51.046;7.010;2023-11-21T02:16:16;100409.13;;;10.38;nan
3082;BME280;1551;51.046;7.010;2023-11-21T02:19:10;100408.28;;;10.35;nan
3082;BME280;1551;51.046;7.010;2023-11-21T02:22:02;100405.75;;;10.32;nan
3082;BME280;1551;51.046;7.010;2023-11-21T02:24:54;100414.22;;;10.38;nan
3082;BME280;1551;51.046;7.010;2023-11-21T02:27:44;100412.53;;;10.38;nan
3082;BME280;1551;51.046;7.010;2023-11-21T02:30:37;100415.06;;;10.38;nan
3082;BME280;1551;51.046;7.010;2023-11-21T02:33:26;100422.66;;;10.44;nan
3082;BME280;1551;51.046;7.010;2023-11-21T02:36:15;100426.09;;;10.43;nan
3082;BME280;1551;51.046;7.010;2023-11-21T02:39:04;100422.56;;;10.52;nan
3082;BME280;1551;51.046;7.010;2023-11-21T02:41:53;100425.91;;;10.57;nan
3082;BME280;1551;51.046;7.010;2023-11-21T02:44:42;100429.28;;;10.59;nan
3082;BME280;1551;51.046;7.010;2023-11-21T02:47:31;100421.59;;;10.59;nan
3082;BME280;1551;51.046;7.010;2023-11-21T02:50:20;100425.88;;;10.58;nan
3082;BME280;1551;51.046;7.010;2023-11-21T02:53:11;100427.63;;;10.55;nan
3082;BME280;1551;51.046;7.010;2023-11-21T02:56:01;100427.56;;;10.59;nan
3082;BME280;1551;51.046;7.010;2023-11-21T03:01:43;100430.19;;;10.55;nan
3082;BME280;1551;51.046;7.010;2023-11-21T03:04:31;100433.56;;;10.55;nan
3082;BME280;1551;51.046;7.010;2023-11-21T03:07:21;100436.84;;;10.65;nan
3082;BME280;1551;51.046;7.010;2023-11-21T03:10:10;100440.22;;;10.67;nan
3082;BME280;1551;51.046;7.010;2023-11-21T03:12:59;100441.91;;;10.69;nan
3082;BME280;1551;51.046;7.010;2023-11-21T03:15:48;100447.06;;;10.68;nan
3082;BME280;1551;51.046;7.010;2023-11-21T03:18:38;100448.78;;;10.66;nan
3082;BME280;1551;51.046;7.010;2023-11-21T03:21:27;100444.53;;;10.65;nan
3082;BME280;1551;51.046;7.010;2023-11-21T03:24:16;100447.94;;;10.65;nan
3082;BME280;1551;51.046;7.010;2023-11-21T03:27:08;100449.75;;;10.59;nan
3082;BME280;1551;51.046;7.010;2023-11-21T03:29:57;100459.16;;;10.57;nan
3082;BME280;1551;51.046;7.010;2023-11-21T03:32:46;100463.53;;;10.49;nan
3082;BME280;1551;51.046;7.010;2023-11-21T03:35:35;100456.72;;;10.48;nan
3082;BME280;1551;51.046;7.010;2023-11-21T03:38:24;100459.31;;;10.45;nan
3082;BME280;1551;51.046;7.010;2023-11-21T03:41:13;100458.38;;;10.52;nan
3082;BME280;1551;51.046;7.010;2023-11-21T03:44:03;100460.94;;;10.52;nan
3082;BME280;1551;51.046;7.010;2023-11-21T03:46:53;100467.69;;;10.56;nan
3082;BME280;1551;51.046;7.010;2023-11-21T03:49:41;100478.78;;;10.56;nan
3082;BME280;1551;51.046;7.010;2023-11-21T03:52:30;100485.59;;;10.56;nan
3082;BME280;1551;51.046;7.010;2023-11-21T03:55:19;100495.00;;;10.57;nan
3082;BME280;1551;51.046;7.010;2023-11-21T03:58:08;100492.38;;;10.61;nan
3082;BME280;1551;51.046;7.010;2023-11-21T04:00:57;100496.59;;;10.62;nan
3082;BME280;1551;51.046;7.010;2023-11-21T04:03:46;100498.38;;;10.59;nan
3082;BME280;1551;51.046;7.010;2023-11-21T04:06:35;100503.56;;;10.54;nan
3082;BME280;1551;51.046;7.010;2023-11-21T04:09:26;100495.88;;;10.53;nan
3082;BME280;1551;51.046;7.010;2023-11-21T04:12:15;100502.81;;;10.45;nan
3082;BME280;1551;51.046;7.010;2023-11-21T04:15:05;100496.78;;;10.50;nan
3082;BME280;1551;51.046;7.010;2023-11-21T04:17:54;100506.97;;;10.53;nan
3082;BME280;1551;51.046;7.010;2023-11-21T04:20:43;100512.97;;;10.52;nan
3082;BME280;1551;51.046;7.010;2023-11-21T04:23:32;100515.59;;;10.48;nan
3082;BME280;1551;51.046;7.010;2023-11-21T04:26:21;100511.34;;;10.44;nan
3082;BME280;1551;51.046;7.010;2023-11-21T04:29:10;100508.00;;;10.40;nan
3082;BME280;1551;51.046;7.010;2023-11-21T04:31:59;100510.50;;;10.45;nan
3082;BME280;1551;51.046;7.010;2023-11-21T04:34:48;100507.00;;;10.52;nan
3082;BME280;1551;51.046;7.010;2023-11-21T04:37:37;100505.19;;;10.58;nan
3082;BME280;1551;51.046;7.010;2023-11-21T04:40:26;100505.16;;;10.60;nan
3082;BME280;1551;51.046;7.010;2023-11-21T04:43:15;100506.03;;;10.59;nan
3082;BME280;1551;51.046;7.010;2023-11-21T04:46:05;100511.22;;;10.54;nan
3082;BME280;1551;51.046;7.010;2023-11-21T04:48:54;100516.34;;;10.54;nan
3082;BME280;1551;51.046;7.010;2023-11-21T04:51:43;100510.38;;;10.54;nan
3082;BME280;1551;51.046;7.010;2023-11-21T04:54:32;100523.19;;;10.52;nan
3082;BME280;1551;51.046;7.010;2023-11-21T04:57:21;100525.78;;;10.49;nan
3082;BME280;1551;51.046;7.010;2023-11-21T05:00:11;100521.63;;;10.41;nan
3082;BME280;1551;51.046;7.010;2023-11-21T05:03:00;100513.84;;;10.48;nan
3082;BME280;1551;51.046;7.010;2023-11-21T05:05:52;100527.50;;;10.50;nan
3082;BME280;1551;51.046;7.010;2023-11-21T05:08:41;100532.59;;;10.52;nan
3082;BME280;1551;51.046;7.010;2023-11-21T05:11:31;100531.69;;;10.53;nan
3082;BME280;1551;51.046;7.010;2023-11-21T05:14:20;100541.09;;;10.51;nan
3082;BME280;1551;51.046;7.010;2023-11-21T05:17:09;100545.34;;;10.53;nan
3082;BME280;1551;51.046;7.010;2023-11-21T05:19:58;100514.09;;;10.28;nan
3082;BME280;1551;51.046;7.010;2023-11-21T05:22:47;100541.16;;;10.48;nan
3082;BME280;1551;51.046;7.010;2023-11-21T05:25:39;100550.47;;;10.53;nan
3082;BME280;1551;51.046;7.010;2023-11-21T05:28:30;100552.19;;;10.51;nan
3082;BME280;1551;51.046;7.010;2023-11-21T05:31:19;100553.00;;;10.56;nan
3082;BME280;1551;51.046;7.010;2023-11-21T05:34:08;100556.41;;;10.55;nan
3082;BME280;1551;51.046;7.010;2023-11-21T05:36:56;100553.84;;;10.55;nan
3082;BME280;1551;51.046;7.010;2023-11-21T05:39:47;100564.09;;;10.57;nan
3082;BME280;1551;51.046;7.010;2023-11-21T05:42:36;100562.38;;;10.57;nan
3082;BME280;1551;51.046;7.010;2023-11-21T05:45:27;100564.91;;;10.59;nan
3082;BME280;1551;51.046;7.010;2023-11-21T05:48:17;100572.63;;;10.57;nan
3082;BME280;1551;51.046;7.010;2023-11-21T05:51:06;100577.66;;;10.60;nan
3082;BME280;1551;51.046;7.010;2023-11-21T05:53:57;100580.22;;;10.62;nan
3082;BME280;1551;51.046;7.010;2023-11-21T05:56:46;100585.25;;;10.68;nan
3082;BME280;1551;51.046;7.010;2023-11-21T05:59:35;100595.47;;;10.71;nan
3082;BME280;1551;51.046;7.010;2023-11-21T06:02:24;100591.25;;;10.68;nan
3082;BME280;1551;51.046;7.010;2023-11-21T06:05:14;100598.06;;;10.68;nan
3082;BME280;1551;51.046;7.010;2023-11-21T06:08:03;100607.47;;;10.66;nan
3082;BME280;1551;51.046;7.010;2023-11-21T06:10:53;100608.25;;;10.72;nan
3082;BME280;1551;51.046;7.010;2023-11-21T06:13:42;100612.53;;;10.70;nan
3082;BME280;1551;51.046;7.010;2023-11-21T06:16:31;100621.03;;;10.72;nan
3082;BME280;1551;51.046;7.010;2023-11-21T06:19:20;100618.56;;;10.66;nan
3082;BME280;1551;51.046;7.010;2023-11-21T06:22:09;100619.38;;;10.70;nan
3082;BME280;1551;51.046;7.010;2023-11-21T06:24:59;100633.88;;;10.71;nan
3082;BME280;1551;51.046;7.010;2023-11-21T06:27:48;100625.31;;;10.72;nan
3082;BME280;1551;51.046;7.010;2023-11-21T06:30:37;100633.88;;;10.71;nan
3082;BME280;1551;51.046;7.010;2023-11-21T06:33:26;100638.97;;;10.69;nan
3082;BME280;1551;51.046;7.010;2023-11-21T06:36:16;100636.44;;;10.68;nan
3082;BME280;1551;51.046;7.010;2023-11-21T06:39:05;100634.75;;;10.68;nan
3082;BME280;1551;51.046;7.010;2023-11-21T06:41:57;100633.06;;;10.66;nan
3082;BME280;1551;51.046;7.010;2023-11-21T06:44:48;100651.06;;;10.58;nan
3082;BME280;1551;51.046;7.010;2023-11-21T06:47:38;100653.66;;;10.55;nan
3082;BME280;1551;51.046;7.010;2023-11-21T06:50:27;100651.09;;;10.55;nan
3082;BME280;1551;51.046;7.010;2023-11-21T06:53:16;100663.06;;;10.55;nan
3082;BME280;1551;51.046;7.010;2023-11-21T06:56:15;100658.88;;;10.48;nan
3082;BME280;1551;51.046;7.010;2023-11-21T06:59:04;100670.78;;;10.49;nan
3082;BME280;1551;51.046;7.010;2023-11-21T07:01:54;100675.91;;;10.49;nan
3082;BME280;1551;51.046;7.010;2023-11-21T07:04:45;100681.00;;;10.52;nan
3082;BME280;1551;51.046;7.010;2023-11-21T07:07:35;100680.97;;;10.53;nan
3082;BME280;1551;51.046;7.010;2023-11-21T07:10:25;100697.16;;;10.55;nan
3082;BME280;1551;51.046;7.010;2023-11-21T07:13:15;100697.97;;;10.59;nan
3082;BME280;1551;51.046;7.010;2023-11-21T07:16:04;100706.50;;;10.61;nan
3082;BME280;1551;51.046;7.010;2023-11-21T07:18:53;100709.03;;;10.64;nan
3082;BME280;1551;51.046;7.010;2023-11-21T07:21:43;100717.53;;;10.66;nan
3082;BME280;1551;51.046;7.010;2023-11-21T07:24:33;100726.03;;;10.68;nan
3082;BME280;1551;51.046;7.010;2023-11-21T07:27:22;100729.44;;;10.71;nan
3082;BME280;1551;51.046;7.010;2023-11-21T07:30:12;100732.81;;;10.73;nan
3082;BME280;1551;51.046;7.010;2023-11-21T07:33:02;100726.84;;;10.73;nan
3082;BME280;1551;51.046;7.010;2023-11-21T07:35:50;100736.19;;;10.77;nan
3082;BME280;1551;51.046;7.010;2023-11-21T07:38:42;100720.78;;;10.80;nan
3082;BME280;1551;51.046;7.010;2023-11-21T07:41:31;100728.41;;;10.86;nan
3082;BME280;1551;51.046;7.010;2023-11-21T07:44:20;100727.59;;;10.81;nan
3082;BME280;1551;51.046;7.010;2023-11-21T07:47:10;100733.53;;;10.86;nan
3082;BME280;1551;51.046;7.010;2023-11-21T07:49:59;100735.13;;;10.96;nan
3082;BME280;1551;51.046;7.010;2023-11-21T07:52:48;100735.03;;;11.02;nan
3082;BME280;1551;51.046;7.010;2023-11-21T07:55:38;100735.94;;;11.01;nan
3082;BME280;1551;51.046;7.010;2023-11-21T07:58:27;100742.69;;;11.08;nan
3082;BME280;1551;51.046;7.010;2023-11-21T08:01:16;100745.22;;;11.10;nan
3082;BME280;1551;51.046;7.010;2023-11-21T08:04:04;100747.78;;;11.10;nan
3082;BME280;1551;51.046;7.010;2023-11-21T08:06:55;100746.84;;;11.18;nan
3082;BME280;1551;51.046;7.010;2023-11-21T08:09:44;100752.78;;;11.19;nan
3082;BME280;1551;51.046;7.010;2023-11-21T08:12:35;100760.47;;;11.20;nan
3082;BME280;1551;51.046;7.010;2023-11-21T08:15:24;100751.97;;;11.17;nan
3082;BME280;1551;51.046;7.010;2023-11-21T08:18:13;100772.28;;;11.30;nan
3082;BME280;1551;51.046;7.010;2023-11-21T08:21:03;100776.44;;;11.40;nan
3082;BME280;1551;51.046;7.010;2023-11-21T08:23:53;100783.25;;;11.43;nan
3082;BME280;1551;51.046;7.010;2023-11-21T08:26:43;100791.00;;;11.38;nan
3082;BME280;1551;51.046;7.010;2023-11-21T08:29:32;100797.09;;;11.30;nan
3082;BME280;1551;51.046;7.010;2023-11-21T08:32:22;100804.00;;;11.22;nan
3082;BME280;1551;51.046;7.010;2023-11-21T08:35:11;100810.06;;;11.13;nan
3082;BME280;1551;51.046;7.010;2023-11-21T08:38:00;100809.22;;;11.13;nan
3082;BME280;1551;51.046;7.010;2023-11-21T08:40:49;100810.06;;;11.13;nan
3082;BME280;1551;51.046;7.010;2023-11-21T08:43:38;100819.44;;;11.16;nan
3082;BME280;1551;51.046;7.010;2023-11-21T08:46:30;100815.91;;;11.26;nan
3082;BME280;1551;51.046;7.010;2023-11-21T08:49:19;100825.28;;;11.30;nan
3082;BME280;1551;51.046;7.010;2023-11-21T08:52:08;100830.31;;;11.36;nan
3082;BME280;1551;51.046;7.010;2023-11-21T08:54:57;100834.47;;;11.44;nan
3082;BME280;1551;51.046;7.010;2023-11-21T08:57:48;100838.78;;;11.44;nan
3082;BME280;1551;51.046;7.010;2023-11-21T09:00:39;100833.72;;;11.39;nan
3082;BME280;1551;51.046;7.010;2023-11-21T09:03:29;100836.97;;;11.52;nan
3082;BME280;1551;51.046;7.010;2023-11-21T09:06:18;100836.91;;;11.56;nan
3082;BME280;1551;51.046;7.010;2023-11-21T09:09:07;100838.56;;;11.62;nan
3082;BME280;1551;51.046;7.010;2023-11-21T09:11:59;100835.94;;;11.69;nan
3082;BME280;1551;51.046;7.010;2023-11-21T09:14:50;100838.50;;;11.69;nan
3082;BME280;1551;51.046;7.010;2023-11-21T09:17:40;100831.75;;;11.59;nan
3082;BME280;1551;51.046;7.010;2023-11-21T09:20:30;100846.22;;;11.65;nan
3082;BME280;1551;51.046;7.010;2023-11-21T09:23:18;100847.91;;;11.66;nan
3082;BME280;1551;51.046;7.010;2023-11-21T09:26:07;100853.94;;;11.62;nan
3082;BME280;1551;51.046;7.010;2023-11-21T09:28:57;100854.75;;;11.67;nan
3082;BME280;1551;51.046;7.010;2023-11-21T09:31:46;100860.75;;;11.64;nan
3082;BME280;1551;51.046;7.010;2023-11-21T09:34:35;100864.16;;;11.68;nan
3082;BME280;1551;51.046;7.010;2023-11-21T09:37:27;100877.94;;;11.58;nan
3082;BME280;1551;51.046;7.010;2023-11-21T09:40:21;100886.38;;;11.67;nan
3082;BME280;1551;51.046;7.010;2023-11-21T09:43:17;100879.47;;;11.74;nan
3082;BME280;1551;51.046;7.010;2023-11-21T09:46:08;100873.47;;;11.75;nan
3082;BME280;1551;51.046;7.010;2023-11-21T09:49:00;100893.09;;;11.78;nan
3082;BME280;1551;51.046;7.010;2023-11-21T09:51:52;100888.78;;;11.83;nan
3082;BME280;1551;51.046;7.010;2023-11-21T09:54:44;100899.03;;;11.83;nan
3082;BME280;1551;51.046;7.010;2023-11-21T09:57:33;100895.69;;;11.76;nan
3082;BME280;1551;51.046;7.010;2023-11-21T10:00:23;100897.38;;;11.79;nan
3082;BME280;1551;51.046;7.010;2023-11-21T10:03:13;100897.41;;;11.76;nan
3082;BME280;1551;51.046;7.010;2023-11-21T10:06:03;100895.75;;;11.70;nan
3082;BME280;1551;51.046;7.010;2023-11-21T10:08:55;100893.91;;;11.83;nan
3082;BME280;1551;51.046;7.010;2023-11-21T10:11:49;100887.94;;;11.81;nan
3082;BME280;1551;51.046;7.010;2023-11-21T10:14:41;100897.44;;;11.74;nan
3082;BME280;1551;51.046;7.010;2023-11-21T10:17:31;100894.84;;;11.72;nan
3082;BME280;1551;51.046;7.010;2023-11-21T10:20:25;100899.09;;;11.77;nan
3082;BME280;1551;51.046;7.010;2023-11-21T10:23:14;100905.16;;;11.69;nan
3082;BME280;1551;51.046;7.010;2023-11-21T10:26:06;100905.97;;;11.73;nan
3082;BME280;1551;51.046;7.010;2023-11-21T10:28:58;100903.34;;;11.79;nan
3082;BME280;1551;51.046;7.010;2023-11-21T10:31:51;100901.47;;;11.92;nan
3082;BME280;1551;51.046;7.010;2023-11-21T10:34:40;100898.84;;;11.98;nan
3082;BME280;1551;51.046;7.010;2023-11-21T10:37:30;100903.09;;;11.99;nan
3082;BME280;1551;51.046;7.010;2023-11-21T10:40:19;100906.47;;;12.04;nan
3082;BME280;1551;51.046;7.010;2023-11-21T10:43:09;100906.44;;;12.05;nan
3082;BME280;1551;51.046;7.010;2023-11-21T10:45:58;100907.97;;;12.17;nan
3082;BME280;1551;51.046;7.010;2023-11-21T10:48:54;100896.78;;;12.25;nan
3082;BME280;1551;51.046;7.010;2023-11-21T10:51:45;100902.63;;;12.35;nan
3082;BME280;1551;51.046;7.010;2023-11-21T10:54:33;100903.53;;;12.32;nan
3082;BME280;1551;51.046;7.010;2023-11-21T10:57:24;100914.72;;;12.24;nan
3082;BME280;1551;51.046;7.010;2023-11-21T11:00:16;100916.44;;;12.25;nan
3082;BME280;1551;51.046;7.010;2023-11-21T11:03:06;100924.09;;;12.29;nan
3082;BME280;1551;51.046;7.010;2023-11-21T11:06:03;100927.50;;;12.28;nan
3082;BME280;1551;51.046;7.010;2023-11-21T11:08:53;100920.63;;;12.32;nan
3082;BME280;1551;51.046;7.010;2023-11-21T11:11:43;100930.88;;;12.33;nan
3082;BME280;1551;51.046;7.010;2023-11-21T11:14:33;100930.13;;;12.25;nan
3082;BME280;1551;51.046;7.010;2023-11-21T11:17:22;100923.28;;;12.24;nan
3082;BME280;1551;51.046;7.010;2023-11-21T11:20:13;100931.88;;;12.22;nan
3082;BME280;1551;51.046;7.010;2023-11-21T11:23:46;100937.19;;;12.08;nan
3082;BME280;1551;51.046;7.010;2023-11-21T11:26:47;100942.25;;;12.14;nan
3082;BME280;1551;51.046;7.010;2023-11-21T11:29:53;100935.50;;;12.07;nan
3082;BME280;1551;51.046;7.010;2023-11-21T11:33:08;100938.88;;;12.11;nan
3082;BME280;1551;51.046;7.010;2023-11-21T11:38:52;100934.31;;;12.32;nan
3082;BME280;1551;51.046;7.010;2023-11-21T11:41:43;100934.31;;;12.31;nan
3082;BME280;1551;51.046;7.010;2023-11-21T11:47:38;100932.47;;;12.42;nan
3082;BME280;1551;51.046;7.010;2023-11-21T11:50:29;100933.16;;;12.53;nan
3082;BME280;1551;51.046;7.010;2023-11-21T11:53:19;100940.91;;;12.52;nan
3082;BME280;1551;51.046;7.010;2023-11-21T11:56:28;100942.63;;;12.51;nan
3082;BME280;1551;51.046;7.010;2023-11-21T11:59:19;100938.38;;;12.49;nan
3082;BME280;1551;51.046;7.010;2023-11-21T12:02:08;100942.88;;;12.31;nan
3082;BME280;1551;51.046;7.010;2023-11-21T12:04:59;100953.97;;;12.33;nan
3082;BME280;1551;51.046;7.010;2023-11-21T12:07:59;100958.09;;;12.47;nan
3082;BME280;1551;51.046;7.010;2023-11-21T12:10:50;100944.44;;;12.45;nan
3082;BME280;1551;51.046;7.010;2023-11-21T12:13:43;100951.41;;;12.33;nan
3082;BME280;1551;51.046;7.010;2023-11-21T12:16:32;100956.47;;;12.38;nan
3082;BME280;1551;51.046;7.010;2023-11-21T12:19:21;100955.34;;;12.57;nan
3082;BME280;1551;51.046;7.010;2023-11-21T12:22:11;100956.34;;;12.49;nan
3082;BME280;1551;51.046;7.010;2023-11-21T12:25:01;100960.78;;;12.36;nan
3082;BME280;1551;51.046;7.010;2023-11-21T12:27:51;100965.91;;;12.36;nan
3082;BME280;1551;51.046;7.010;2023-11-21T12:30:41;100969.41;;;12.29;nan
3082;BME280;1551;51.046;7.010;2023-11-21T12:33:30;100973.00;;;12.17;nan
3082;BME280;1551;51.046;7.010;2023-11-21T12:36:19;100968.69;;;12.21;nan
3082;BME280;1551;51.046;7.010;2023-11-21T12:39:07;100971.19;;;12.24;nan
3082;BME280;1551;51.046;7.010;2023-11-21T12:41:58;100974.69;;;12.17;nan
3082;BME280;1551;51.046;7.010;2023-11-21T12:44:47;100985.88;;;12.13;nan
3082;BME280;1551;51.046;7.010;2023-11-21T12:47:36;100984.06;;;12.19;nan
3082;BME280;1551;51.046;7.010;2023-11-21T12:50:28;100976.34;;;12.22;nan
3082;BME280;1551;51.046;7.010;2023-11-21T12:53:17;100979.88;;;12.14;nan
3082;BME280;1551;51.046;7.010;2023-11-21T12:56:10;100985.13;;;12.03;nan
3082;BME280;1551;51.046;7.010;2023-11-21T12:59:00;100981.69;;;12.06;nan
3082;BME280;1551;51.046;7.010;2023-11-21T13:01:54;100989.25;;;12.18;nan
3082;BME280;1551;51.046;7.010;2023-11-21T13:04:52;100984.75;;;12.35;nan
3082;BME280;1551;51.046;7.010;2023-11-21T13:07:42;100992.34;;;12.42;nan
3082;BME280;1551;51.046;7.010;2023-11-21T13:10:36;100988.03;;;12.46;nan
3082;BME280;1551;51.046;7.010;2023-11-21T13:13:28;100991.31;;;12.57;nan
3082;BME280;1551;51.046;7.010;2023-11-21T13:16:17;100992.16;;;12.58;nan
3082;BME280;1551;51.046;7.010;2023-11-21T13:19:06;100994.88;;;12.47;nan
3082;BME280;1551;51.046;7.010;2023-11-21T13:21:57;100997.63;;;12.32;nan
3082;BME280;1551;51.046;7.010;2023-11-21T13:24:47;100999.34;;;12.33;nan
3082;BME280;1551;51.046;7.010;2023-11-21T13:27:36;101014.78;;;12.27;nan
3082;BME280;1551;51.046;7.010;2023-11-21T13:30:26;101005.34;;;12.29;nan
3082;BME280;1551;51.046;7.010;2023-11-21T13:33:16;101014.75;;;12.28;nan
3082;BME280;1551;51.046;7.010;2023-11-21T13:36:10;101012.22;;;12.27;nan
3082;BME280;1551;51.046;7.010;2023-11-21T13:38:59;101011.22;;;12.38;nan
3082;BME280;1551;51.046;7.010;2023-11-21T13:41:53;101020.59;;;12.41;nan
3082;BME280;1551;51.046;7.010;2023-11-21T13:44:43;101030.16;;;12.28;nan
3082;BME280;1551;51.046;7.010;2023-11-21T13:47:35;101032.88;;;12.18;nan
3082;BME280;1551;51.046;7.010;2023-11-21T13:50:26;101038.84;;;12.18;nan
3082;BME280;1551;51.046;7.010;2023-11-21T13:53:22;101032.00;;;12.17;nan
3082;BME280;1551;51.046;7.010;2023-11-21T13:56:11;101043.91;;;12.24;nan
3082;BME280;1551;51.046;7.010;2023-11-21T13:59:01;101037.88;;;12.30;nan
3082;BME280;1551;51.046;7.010;2023-11-21T14:01:59;101046.47;;;12.26;nan
3082;BME280;1551;51.046;7.010;2023-11-21T14:04:48;101039.59;;;12.26;nan
3082;BME280;1551;51.046;7.010;2023-11-21T14:07:40;101045.63;;;12.22;nan
3082;BME280;1551;51.046;7.010;2023-11-21T14:10:36;101037.94;;;12.22;nan
3082;BME280;1551;51.046;7.010;2023-11-21T14:13:39;101049.03;;;12.24;nan
3082;BME280;1551;51.046;7.010;2023-11-21T14:16:34;101043.88;;;12.27;nan
3082;BME280;1551;51.046;7.010;2023-11-21T14:19:23;101043.00;;;12.28;nan
3082;BME280;1551;51.046;7.010;2023-11-21T14:22:16;101049.03;;;12.24;nan
3082;BME280;1551;51.046;7.010;2023-11-21T14:25:06;101048.22;;;12.21;nan
3082;BME280;1551;51.046;7.010;2023-11-21T14:27:55;101052.50;;;12.20;nan
3082;BME280;1551;51.046;7.010;2023-11-21T14:30:48;101053.31;;;12.25;nan
3082;BME280;1551;51.046;7.010;2023-11-21T14:33:37;101059.22;;;12.32;nan
3082;BME280;1551;51.046;7.010;2023-11-21T14:36:25;101060.94;;;12.31;nan
3082;BME280;1551;51.046;7.010;2023-11-21T14:39:14;101068.69;;;12.27;nan
3082;BME280;1551;51.046;7.010;2023-11-21T14:42:15;101071.41;;;12.13;nan
3082;BME280;1551;51.046;7.010;2023-11-21T14:45:05;101071.50;;;12.03;nan
3082;BME280;1551;51.046;7.010;2023-11-21T14:47:55;101072.34;;;12.05;nan
3082;BME280;1551;51.046;7.010;2023-11-21T14:50:54;101068.06;;;12.07;nan
3082;BME280;1551;51.046;7.010;2023-11-21T14:54:02;101074.91;;;12.06;nan
3082;BME280;1551;51.046;7.010;2023-11-21T14:56:55;101079.97;;;12.14;nan
3082;BME280;1551;51.046;7.010;2023-11-21T14:59:46;101074.03;;;12.09;nan
3082;BME280;1551;51.046;7.010;2023-11-21T15:02:46;101057.97;;;11.87;nan
3082;BME280;1551;51.046;7.010;2023-11-21T15:05:38;101084.31;;;12.04;nan
3082;BME280;1551;51.046;7.010;2023-11-21T15:08:28;101086.00;;;12.07;nan
3082;BME280;1551;51.046;7.010;2023-11-21T15:11:20;101102.31;;;12.01;nan
3082;BME280;1551;51.046;7.010;2023-11-21T15:14:13;101109.16;;;12.01;nan
3082;BME280;1551;51.046;7.010;2023-11-21T15:17:09;101107.50;;;11.94;nan
3082;BME280;1551;51.046;7.010;2023-11-21T15:19:58;101113.53;;;11.90;nan
3082;BME280;1551;51.046;7.010;2023-11-21T15:22:48;101119.47;;;11.98;nan
3082;BME280;1551;51.046;7.010;2023-11-21T15:25:38;101128.84;;;11.97;nan
3082;BME280;1551;51.046;7.010;2023-11-21T15:28:27;101126.34;;;11.93;nan
3082;BME280;1551;51.046;7.010;2023-11-21T15:31:17;101137.44;;;11.92;nan
3082;BME280;1551;51.046;7.010;2023-11-21T15:34:11;101143.44;;;11.92;nan
3082;BME280;1551;51.046;7.010;2023-11-21T15:37:01;101144.31;;;11.87;nan
3082;BME280;1551;51.046;7.010;2023-11-21T15:39:51;101146.91;;;11.85;nan
3082;BME280;1551;51.046;7.010;2023-11-21T15:42:40;101144.38;;;11.84;nan
3082;BME280;1551;51.046;7.010;2023-11-21T15:45:29;101153.69;;;11.95;nan
3082;BME280;1551;51.046;7.010;2023-11-21T15:48:18;101139.19;;;11.88;nan
3082;BME280;1551;51.046;7.010;2023-11-21T15:51:07;101149.34;;;12.02;nan